North Salem, New York
Current Conditions -  °F | °C
As of 11:53 AM on Friday 24 Oct 2014 (Local Time) from KDXR Reporting Station
Overcast Overcast  
Wind Chill: 52°   Ceiling: 2300
Heat Index: 52°   Visibility: 10mi
Dew Point: 41°   Wind: 15mph
Humidity: 66%   Direction: 340°NNW
Pressure: 29.81"   Gusts: 25mph
Location:  41.33°N, 73.57°W
Report Text: KDXR 241553Z 34013G22KT 10SM OVC023 11/05 A2981 RMK AO2 SLP093 T01110050
Loading
Personal Weather Stations






























Interactive Weather Map
Tropical Storm Tracking
New forecast layout! Learn more

10-Day Weather Forecast

Advertisements
Track Severe Weather on mobile